createdAt,value
2019-02-06T00:00:57.670Z,134.60
2019-02-06T00:03:29.109Z,118.73
2019-02-06T00:05:59.708Z,123.53
2019-02-06T00:08:30.059Z,123.97
2019-02-06T00:11:00.484Z,127.53
2019-02-06T00:13:31.530Z,113.20
2019-02-06T00:16:02.154Z,131.80
2019-02-06T00:18:32.524Z,114.47
2019-02-06T00:21:03.087Z,118.60
2019-02-06T00:23:33.495Z,141.30
2019-02-06T00:26:04.698Z,131.20
2019-02-06T00:28:37.298Z,128.13
2019-02-06T00:31:07.679Z,127.67
2019-02-06T00:33:38.078Z,127.63
2019-02-06T00:36:08.658Z,126.97
2019-02-06T00:38:39.048Z,100.90
2019-02-06T00:41:10.068Z,132.37
2019-02-06T00:43:40.434Z,121.27
2019-02-06T00:46:10.850Z,132.20
2019-02-06T00:48:42.813Z,116.10
2019-02-06T00:51:13.642Z,132.03
2019-02-06T00:53:44.363Z,88.83
2019-02-06T00:56:14.813Z,119.63
2019-02-06T00:58:45.324Z,124.97
2019-02-06T01:01:15.964Z,126.50
2019-02-06T01:03:46.301Z,113.83
2019-02-06T01:06:16.738Z,128.87
2019-02-06T01:08:47.329Z,112.40
2019-02-06T01:11:17.697Z,122.23
2019-02-06T01:13:48.103Z,132.17
2019-02-06T01:16:18.524Z,119.67
2019-02-06T01:18:48.835Z,117.40
2019-02-06T01:21:19.266Z,132.10
2019-02-06T01:23:49.692Z,134.17
2019-02-06T01:26:20.090Z,113.07
2019-02-06T01:28:50.756Z,113.13
2019-02-06T01:31:24.968Z,111.37
2019-02-06T01:33:55.262Z,125.53
2019-02-06T01:36:26.626Z,133.27
2019-02-06T01:38:57.158Z,114.37
2019-02-06T01:41:27.904Z,111.77
2019-02-06T01:43:58.220Z,116.63
2019-02-06T01:46:28.634Z,121.67
2019-02-06T01:48:59.092Z,121.87
2019-02-06T01:51:29.729Z,120.67
2019-02-06T01:54:00.128Z,116.13
2019-02-06T01:56:30.902Z,116.33
2019-02-06T01:59:01.765Z,117.47
2019-02-06T02:01:32.124Z,118.50
2019-02-06T02:04:03.002Z,118.77
2019-02-06T02:06:33.426Z,115.83
2019-02-06T02:09:07.314Z,116.87
2019-02-06T02:11:37.914Z,125.60
2019-02-06T02:14:08.474Z,120.70
2019-02-06T02:16:39.105Z,105.17
2019-02-06T02:19:09.524Z,120.77
2019-02-06T02:21:39.948Z,108.83
2019-02-06T02:24:10.672Z,116.90
2019-02-06T02:26:41.028Z,108.97
2019-02-06T02:29:11.484Z,116.17
2019-02-06T02:31:42.448Z,112.80
2019-02-06T02:34:14.260Z,117.57
2019-02-06T02:36:44.839Z,111.17
2019-02-06T02:39:16.330Z,115.33
2019-02-06T02:41:46.799Z,118.83
2019-02-06T02:44:17.235Z,111.47
2019-02-06T02:46:47.806Z,114.90
2019-02-06T02:49:18.219Z,120.27
2019-02-06T02:51:48.596Z,121.13
2019-02-06T02:54:19.687Z,115.97
2019-02-06T02:56:50.079Z,119.63
2019-02-06T02:59:20.834Z,100.53
2019-02-06T03:02:05.171Z,114.63
2019-02-06T03:04:39.706Z,117.70
2019-02-06T03:07:10.156Z,120.23
2019-02-06T03:09:40.960Z,116.67
2019-02-06T03:12:11.352Z,123.17
2019-02-06T03:14:42.202Z,109.27
2019-02-06T03:17:12.653Z,112.13
2019-02-06T03:19:42.998Z,118.30
2019-02-06T03:22:13.523Z,103.53
2019-02-06T03:24:43.998Z,105.03
2019-02-06T03:27:14.356Z,111.03
2019-02-06T03:29:44.760Z,96.83
2019-02-06T03:32:15.131Z,113.17
2019-02-06T03:34:45.528Z,104.77
2019-02-06T03:37:16.442Z,108.23
2019-02-06T03:39:46.801Z,98.90
2019-02-06T03:42:17.124Z,111.27
2019-02-06T03:44:47.504Z,109.40
2019-02-06T03:47:17.897Z,96.50
2019-02-06T03:49:49.290Z,104.83
2019-02-06T03:52:19.696Z,105.97
2019-02-06T03:54:50.133Z,101.57
2019-02-06T03:57:20.556Z,101.53
2019-02-06T03:59:50.947Z,107.00
2019-02-06T04:02:21.364Z,100.70
2019-02-06T04:04:52.262Z,99.93
2019-02-06T04:07:22.700Z,101.43
2019-02-06T04:09:53.154Z,99.00
2019-02-06T04:12:23.498Z,95.00
2019-02-06T04:14:53.941Z,102.37
2019-02-06T04:17:24.469Z,100.20
2019-02-06T04:19:55.173Z,92.37
2019-02-06T04:22:25.454Z,88.07
2019-02-06T04:24:55.818Z,87.30
2019-02-06T04:27:26.124Z,92.53
2019-02-06T04:29:56.498Z,98.80
2019-02-06T04:32:28.370Z,91.80
2019-02-06T04:34:58.745Z,93.30
2019-02-06T04:37:29.105Z,101.03
2019-02-06T04:39:59.456Z,91.57
2019-02-06T04:42:29.779Z,100.83
2019-02-06T04:45:00.337Z,90.53
2019-02-06T04:47:31.029Z,88.23
2019-02-06T04:50:01.416Z,93.13
2019-02-06T04:52:31.876Z,98.37
2019-02-06T04:55:02.372Z,87.30
2019-02-06T04:57:32.825Z,91.07
2019-02-06T05:00:03.250Z,89.60
2019-02-06T05:02:33.645Z,92.77
2019-02-06T05:05:04.968Z,81.87
2019-02-06T05:07:37.417Z,87.23
2019-02-06T05:10:09.855Z,104.17
2019-02-06T05:12:40.282Z,90.83
2019-02-06T05:15:11.577Z,93.53
2019-02-06T05:17:41.959Z,89.80
2019-02-06T05:20:30.168Z,86.90
2019-02-06T05:23:00.593Z,78.13
2019-02-06T05:25:31.326Z,84.40
2019-02-06T05:28:01.740Z,81.30
2019-02-06T05:30:32.155Z,78.13
2019-02-06T05:33:02.642Z,93.90
2019-02-06T05:35:33.015Z,83.77
2019-02-06T05:38:03.427Z,90.73
2019-02-06T05:40:33.760Z,82.20
2019-02-06T05:43:05.761Z,80.83
2019-02-06T05:45:36.184Z,86.07
2019-02-06T05:48:06.577Z,81.00
2019-02-06T05:50:37.179Z,85.60
2019-02-06T05:53:08.073Z,89.10
2019-02-06T05:55:38.464Z,89.13
2019-02-06T05:58:08.929Z,90.97
2019-02-06T06:00:50.159Z,75.97
2019-02-06T06:03:20.534Z,89.00
2019-02-06T06:05:51.404Z,91.23
2019-02-06T06:08:22.133Z,90.30
2019-02-06T06:10:52.686Z,75.40
2019-02-06T06:13:23.476Z,85.10
2019-02-06T06:15:53.954Z,91.33
2019-02-06T06:18:24.847Z,84.90
2019-02-06T06:20:55.537Z,87.03
2019-02-06T06:23:25.980Z,78.40
2019-02-06T06:25:56.310Z,82.30
2019-02-06T06:28:26.662Z,82.27
2019-02-06T06:30:57.072Z,80.37
2019-02-06T06:33:28.911Z,83.00
2019-02-06T06:35:59.234Z,78.30
2019-02-06T06:38:30.040Z,84.37
2019-02-06T06:41:00.422Z,78.23
2019-02-06T06:43:30.809Z,81.87
2019-02-06T06:46:01.117Z,83.63
2019-02-06T06:48:31.882Z,73.73
2019-02-06T06:51:02.285Z,86.20
2019-02-06T06:53:35.858Z,83.33
2019-02-06T06:56:06.348Z,76.07
2019-02-06T06:58:37.922Z,73.27
2019-02-06T07:01:10.755Z,80.20
2019-02-06T07:03:40.792Z,84.80
2019-02-06T07:06:11.144Z,84.00
2019-02-06T07:08:42.218Z,83.67
2019-02-06T07:11:14.291Z,88.53
2019-02-06T07:13:44.744Z,82.10
2019-02-06T07:16:15.194Z,86.50
2019-02-06T07:18:45.593Z,75.97
2019-02-06T07:21:16.387Z,79.27
2019-02-06T07:23:46.811Z,82.40
2019-02-06T07:26:17.186Z,73.33
2019-02-06T07:28:48.000Z,78.70
2019-02-06T07:31:18.379Z,88.40
2019-02-06T07:33:49.477Z,83.40
2019-02-06T07:36:19.801Z,74.20
2019-02-06T07:38:50.192Z,80.77
2019-02-06T07:41:20.511Z,81.73
2019-02-06T07:43:50.916Z,81.77
2019-02-06T07:46:21.310Z,92.00
2019-02-06T07:48:51.941Z,77.53
2019-02-06T07:51:22.239Z,84.00
2019-02-06T07:53:52.677Z,77.37
2019-02-06T07:56:23.817Z,71.53
2019-02-06T07:58:54.327Z,87.40
2019-02-06T08:01:24.636Z,112.43
2019-02-06T08:03:55.037Z,70.30
2019-02-06T08:06:25.913Z,73.57
2019-02-06T08:08:57.315Z,91.77
2019-02-06T08:11:27.990Z,76.13
2019-02-06T08:13:58.343Z,78.20
2019-02-06T08:16:28.869Z,84.57
2019-02-06T08:18:59.223Z,75.60
2019-02-06T08:21:29.648Z,77.37
2019-02-06T08:24:00.439Z,79.90
2019-02-06T08:26:30.857Z,69.33
2019-02-06T08:29:01.579Z,85.17
2019-02-06T08:31:32.263Z,67.87
2019-02-06T08:34:02.733Z,75.43
2019-02-06T08:36:36.575Z,79.30
2019-02-06T08:39:09.819Z,68.20
2019-02-06T08:41:40.697Z,70.90
2019-02-06T08:44:11.077Z,65.70
2019-02-06T08:46:41.518Z,61.07
2019-02-06T08:49:12.287Z,69.97
2019-02-06T08:51:42.771Z,74.23
2019-02-06T08:54:13.143Z,72.63
2019-02-06T08:56:44.039Z,70.77
2019-02-06T08:59:14.355Z,60.73
2019-02-06T09:01:45.135Z,65.67
2019-02-06T09:04:15.577Z,66.90
2019-02-06T09:06:46.052Z,63.20
2019-02-06T09:09:16.427Z,72.30
2019-02-06T09:11:46.845Z,64.07
2019-02-06T09:14:17.285Z,61.40
2019-02-06T09:16:48.048Z,62.13
2019-02-06T09:19:19.092Z,63.10
2019-02-06T09:21:49.589Z,65.67
2019-02-06T09:24:19.955Z,61.13
2019-02-06T09:26:50.440Z,75.13
2019-02-06T09:29:21.019Z,67.57
2019-02-06T09:31:51.682Z,60.37
2019-02-06T09:34:22.221Z,54.10
2019-02-06T09:36:53.031Z,56.23
2019-02-06T09:39:23.409Z,60.20
2019-02-06T09:41:54.068Z,63.97
2019-02-06T09:44:24.539Z,64.97
2019-02-06T09:46:55.363Z,62.37
2019-02-06T09:49:25.757Z,66.90
2019-02-06T09:51:56.205Z,69.20
2019-02-06T09:54:26.579Z,60.10
2019-02-06T09:56:57.089Z,77.93
2019-02-06T09:59:27.425Z,62.23
2019-02-06T10:01:58.560Z,65.07
2019-02-06T10:04:28.983Z,65.30
2019-02-06T10:06:59.617Z,63.73
2019-02-06T10:09:30.441Z,72.23
2019-02-06T10:12:00.855Z,60.57
2019-02-06T10:14:31.296Z,67.63
2019-02-06T10:17:01.805Z,63.10
2019-02-06T10:19:32.261Z,55.73
2019-02-06T10:22:03.177Z,71.83
2019-02-06T10:24:34.154Z,64.30
2019-02-06T10:27:04.636Z,65.40
2019-02-06T10:29:35.893Z,69.27
2019-02-06T10:32:06.263Z,68.37
2019-02-06T10:34:36.884Z,73.10
2019-02-06T10:37:07.261Z,59.77
2019-02-06T10:39:37.667Z,61.03
2019-02-06T10:42:08.241Z,61.27
2019-02-06T10:44:38.655Z,58.23
2019-02-06T10:47:09.187Z,63.67
2019-02-06T10:49:40.773Z,73.13
2019-02-06T10:52:11.134Z,60.03
2019-02-06T10:54:41.773Z,61.80
2019-02-06T10:57:12.819Z,61.73
2019-02-06T10:59:43.247Z,58.80
2019-02-06T11:02:14.247Z,66.27
2019-02-06T11:04:44.666Z,55.00
2019-02-06T11:07:15.056Z,67.70
2019-02-06T11:09:46.625Z,63.90
2019-02-06T11:12:17.079Z,61.53
2019-02-06T11:14:47.522Z,63.20
2019-02-06T11:17:18.161Z,59.67
2019-02-06T11:19:49.081Z,56.70
2019-02-06T11:22:19.569Z,58.53
2019-02-06T11:24:50.463Z,64.93
2019-02-06T11:27:21.033Z,59.73
2019-02-06T11:29:51.630Z,62.00
2019-02-06T11:32:22.123Z,63.13
2019-02-06T11:34:52.873Z,64.43
2019-02-06T11:37:23.279Z,56.03
2019-02-06T11:39:57.998Z,57.17
2019-02-06T11:42:26.011Z,57.57
2019-02-06T11:44:56.440Z,48.87
2019-02-06T11:47:26.787Z,53.00
2019-02-06T11:49:59.113Z,59.93
2019-02-06T11:52:29.533Z,51.13
2019-02-06T11:55:00.342Z,55.90
2019-02-06T11:57:31.005Z,59.73
2019-02-06T12:00:01.775Z,55.03
2019-02-06T12:02:37.490Z,52.70
2019-02-06T12:05:05.789Z,54.60
2019-02-06T12:07:36.179Z,46.00
2019-02-06T12:10:10.281Z,51.00
2019-02-06T12:12:41.800Z,51.57
2019-02-06T12:15:15.588Z,58.33
2019-02-06T12:17:46.339Z,50.23
2019-02-06T12:20:19.022Z,47.40
2019-02-06T12:22:51.620Z,48.67
2019-02-06T12:25:21.997Z,46.67
2019-02-06T12:27:52.726Z,49.87
2019-02-06T12:30:29.678Z,47.40
2019-02-06T12:33:00.132Z,50.10
2019-02-06T12:35:30.824Z,45.50
2019-02-06T12:38:01.578Z,47.07
2019-02-06T12:40:32.111Z,49.30
2019-02-06T12:43:02.432Z,48.43
2019-02-06T12:45:33.340Z,54.13
2019-02-06T12:48:06.813Z,53.93
2019-02-06T12:50:37.207Z,52.47
2019-02-06T12:53:07.866Z,49.80
2019-02-06T12:55:39.667Z,46.03
2019-02-06T12:58:10.590Z,54.10
2019-02-06T13:00:42.135Z,59.00
2019-02-06T13:03:12.614Z,45.57
2019-02-06T13:05:43.275Z,54.20
2019-02-06T13:08:13.697Z,55.73
2019-02-06T13:10:44.087Z,61.13
2019-02-06T13:13:14.727Z,56.10
2019-02-06T13:15:47.358Z,56.27
2019-02-06T13:18:17.995Z,53.57
2019-02-06T13:20:51.197Z,53.30
2019-02-06T13:23:21.510Z,51.67
2019-02-06T13:25:51.945Z,50.00
2019-02-06T13:28:22.307Z,46.67
2019-02-06T13:30:52.870Z,53.70
2019-02-06T13:33:23.569Z,46.17
2019-02-06T13:35:54.025Z,55.10
2019-02-06T13:38:24.856Z,46.73
2019-02-06T13:40:55.585Z,57.27
2019-02-06T13:43:27.416Z,51.27
2019-02-06T13:45:57.759Z,51.53
2019-02-06T13:48:28.181Z,50.07
2019-02-06T13:50:59.031Z,46.67
2019-02-06T13:53:29.447Z,56.43
2019-02-06T13:55:59.799Z,52.83
2019-02-06T13:58:30.283Z,47.03
2019-02-06T14:01:00.919Z,48.97
2019-02-06T14:03:31.258Z,50.40
2019-02-06T14:06:01.898Z,51.23
2019-02-06T14:08:32.743Z,44.90
2019-02-06T14:11:03.302Z,54.27
2019-02-06T14:13:33.676Z,50.60
2019-02-06T14:16:05.672Z,55.43
2019-02-06T14:18:36.006Z,58.27
2019-02-06T14:21:06.975Z,45.27
2019-02-06T14:24:02.857Z,52.73
2019-02-06T14:26:41.114Z,53.40
2019-02-06T14:29:57.100Z,54.63
2019-02-06T14:33:17.708Z,61.03
2019-02-06T14:36:19.736Z,52.97
2019-02-06T14:39:10.883Z,48.27
2019-02-06T14:42:26.265Z,55.90
2019-02-06T14:45:23.759Z,50.40
2019-02-06T14:48:30.195Z,45.70
2019-02-06T14:51:46.205Z,54.13
2019-02-06T14:54:41.830Z,46.87
2019-02-06T14:57:53.665Z,49.93
2019-02-06T15:01:00.486Z,48.83
2019-02-06T15:04:19.281Z,52.50
2019-02-06T15:07:32.704Z,49.13
2019-02-06T15:10:33.817Z,53.27
2019-02-06T15:13:39.179Z,51.07
2019-02-06T15:16:47.915Z,54.00
2019-02-06T15:19:40.228Z,68.40
2019-02-06T15:22:42.251Z,53.20
2019-02-06T15:25:49.401Z,66.23
2019-02-06T15:28:48.639Z,55.73
2019-02-06T15:31:57.001Z,57.13
2019-02-06T15:35:00.354Z,55.57
2019-02-06T15:37:57.987Z,56.97
2019-02-06T15:41:09.414Z,64.73
2019-02-06T15:44:01.824Z,65.43
2019-02-06T15:47:26.029Z,64.47
2019-02-06T15:50:40.912Z,63.60
2019-02-06T15:53:51.162Z,67.03
2019-02-06T15:56:53.114Z,67.10
2019-02-06T16:00:06.567Z,64.97
2019-02-06T16:03:13.210Z,57.80
2019-02-06T16:06:10.268Z,63.90
2019-02-06T16:09:24.599Z,58.27
2019-02-06T16:12:30.213Z,65.27
2019-02-06T16:15:16.375Z,62.60
2019-02-06T16:18:27.884Z,64.57
2019-02-06T16:21:52.687Z,73.93
2019-02-06T16:24:57.185Z,67.73
2019-02-06T16:27:50.767Z,76.47
2019-02-06T16:31:09.818Z,69.60
2019-02-06T16:34:08.944Z,73.60
2019-02-06T16:37:19.643Z,74.87
2019-02-06T16:40:30.237Z,89.87
2019-02-06T16:43:41.462Z,82.67
2019-02-06T16:46:49.636Z,100.40
2019-02-06T16:49:38.361Z,69.93
2019-02-06T16:52:18.960Z,76.13
2019-02-06T16:55:41.553Z,93.67
2019-02-06T16:58:48.192Z,84.43
2019-02-06T17:02:02.360Z,74.33
2019-02-06T17:05:00.787Z,89.63
2019-02-06T17:07:49.972Z,110.23
2019-02-06T17:11:16.490Z,82.77
2019-02-06T17:14:26.030Z,76.07
2019-02-06T17:17:04.492Z,86.20
2019-02-06T17:20:01.975Z,76.00
2019-02-06T17:23:13.465Z,73.60
2019-02-06T17:26:11.540Z,91.77
2019-02-06T17:29:18.794Z,85.07
2019-02-06T17:32:36.204Z,78.63
2019-02-06T17:35:43.164Z,86.50
2019-02-06T17:38:36.053Z,88.37
2019-02-06T17:41:52.016Z,83.10
2019-02-06T17:45:03.799Z,84.63
2019-02-06T17:48:03.544Z,81.57
2019-02-06T17:50:57.843Z,95.37
2019-02-06T17:53:46.478Z,70.90
2019-02-06T17:56:18.596Z,74.60
2019-02-06T17:58:49.358Z,63.20
2019-02-06T18:01:59.964Z,69.10
2019-02-06T18:04:37.015Z,67.50
2019-02-06T18:07:07.896Z,67.37
2019-02-06T18:09:38.299Z,62.07
2019-02-06T18:12:08.822Z,69.40
2019-02-06T18:14:39.382Z,64.37
2019-02-06T18:17:10.371Z,58.17
2019-02-06T18:19:41.654Z,54.23
2019-02-06T18:22:12.074Z,105.53
2019-02-06T18:24:43.045Z,76.83
2019-02-06T18:27:14.325Z,71.63
2019-02-06T18:29:45.147Z,62.53
2019-02-06T18:32:15.874Z,72.27
2019-02-06T18:34:46.723Z,67.20
2019-02-06T18:37:17.404Z,76.53
2019-02-06T18:39:48.248Z,65.00
2019-02-06T18:42:18.739Z,66.47
2019-02-06T18:44:49.209Z,74.97
2019-02-06T18:47:21.099Z,64.93
2019-02-06T18:49:52.237Z,76.43
2019-02-06T18:52:22.728Z,113.40
2019-02-06T18:54:57.292Z,72.37
2019-02-06T18:57:26.382Z,90.70
2019-02-06T18:59:57.224Z,78.77
2019-02-06T19:02:27.602Z,90.17
2019-02-06T19:04:59.089Z,87.63
2019-02-06T19:07:29.888Z,80.33
2019-02-06T19:10:03.336Z,83.07
2019-02-06T19:12:34.115Z,85.23
2019-02-06T19:15:06.443Z,82.60
2019-02-06T19:17:38.164Z,93.13
2019-02-06T19:20:12.586Z,85.47
2019-02-06T19:22:43.280Z,92.03
2019-02-06T19:25:14.196Z,82.13
2019-02-06T19:27:44.929Z,83.87
2019-02-06T19:30:27.699Z,78.73
2019-02-06T19:32:58.652Z,81.80
2019-02-06T19:35:29.239Z,79.93
2019-02-06T19:37:59.748Z,77.43
2019-02-06T19:40:30.162Z,70.97
2019-02-06T19:43:02.704Z,78.83
2019-02-06T19:45:33.064Z,79.80
2019-02-06T19:48:15.073Z,76.60
2019-02-06T19:50:38.190Z,82.50
2019-02-06T19:53:09.216Z,75.60
2019-02-06T19:55:40.801Z,83.17
2019-02-06T19:58:11.540Z,83.97
2019-02-06T20:00:43.031Z,80.47
2019-02-06T20:03:13.537Z,89.37
2019-02-06T20:05:44.119Z,87.97
2019-02-06T20:08:15.257Z,92.47
2019-02-06T20:10:47.506Z,98.23
2019-02-06T20:13:18.079Z,105.13
2019-02-06T20:15:48.683Z,89.97
2019-02-06T20:18:19.094Z,111.97
2019-02-06T20:20:49.432Z,83.90
2019-02-06T20:23:19.926Z,95.43
2019-02-06T20:25:50.344Z,85.83
2019-02-06T20:28:20.780Z,92.20
2019-02-06T20:30:51.260Z,100.43
2019-02-06T20:33:22.310Z,100.50
2019-02-06T20:35:53.226Z,92.63
2019-02-06T20:38:23.724Z,109.03
2019-02-06T20:40:54.091Z,88.70
2019-02-06T20:43:24.696Z,95.73
2019-02-06T20:45:55.170Z,86.17
2019-02-06T20:48:26.132Z,99.60
2019-02-06T20:50:57.002Z,90.37
2019-02-06T20:53:27.912Z,88.37
2019-02-06T20:55:58.381Z,90.93
2019-02-06T20:58:29.053Z,94.97
2019-02-06T21:00:59.512Z,87.50
2019-02-06T21:03:29.949Z,87.50
2019-02-06T21:06:00.414Z,88.20
2019-02-06T21:08:30.914Z,81.53
2019-02-06T21:11:01.388Z,102.00
2019-02-06T21:13:33.926Z,104.83
2019-02-06T21:16:05.273Z,97.77
2019-02-06T21:18:35.885Z,92.60
2019-02-06T21:21:06.278Z,82.47
2019-02-06T21:23:36.704Z,91.10
2019-02-06T21:26:07.064Z,98.73
2019-02-06T21:28:37.495Z,103.47
2019-02-06T21:31:08.413Z,84.83
2019-02-06T21:33:38.870Z,100.07
2019-02-06T21:36:09.232Z,106.27
2019-02-06T21:38:39.932Z,101.87
2019-02-06T21:41:13.471Z,96.13
2019-02-06T21:43:44.509Z,87.30
2019-02-06T21:46:15.276Z,99.13
2019-02-06T21:48:45.681Z,108.03
2019-02-06T21:51:16.701Z,101.50
2019-02-06T21:53:47.076Z,99.40
2019-02-06T21:56:17.460Z,130.70
2019-02-06T21:58:48.328Z,123.00
2019-02-06T22:01:18.909Z,126.40
2019-02-06T22:03:49.445Z,110.77
2019-02-06T22:06:19.870Z,115.90
2019-02-06T22:08:50.776Z,106.90
2019-02-06T22:11:21.408Z,125.43
2019-02-06T22:13:55.269Z,126.33
2019-02-06T22:16:24.248Z,120.67
2019-02-06T22:18:54.947Z,118.53
2019-02-06T22:21:25.401Z,135.27
2019-02-06T22:23:56.237Z,123.63
2019-02-06T22:26:26.627Z,134.00
2019-02-06T22:28:57.088Z,140.60
2019-02-06T22:31:27.917Z,142.43
2019-02-06T22:33:58.235Z,143.77
2019-02-06T22:36:29.188Z,111.80
2019-02-06T22:39:00.181Z,136.63
2019-02-06T22:41:30.617Z,95.07
2019-02-06T22:44:06.537Z,134.73
2019-02-06T22:46:33.135Z,142.63
2019-02-06T22:49:05.234Z,152.53
2019-02-06T22:51:35.647Z,125.63
2019-02-06T22:54:06.388Z,147.67
2019-02-06T22:56:36.951Z,152.67
2019-02-06T22:59:07.392Z,104.83
2019-02-06T23:01:47.915Z,136.30
2019-02-06T23:04:18.471Z,150.10
2019-02-06T23:06:49.047Z,136.50
2019-02-06T23:09:19.898Z,103.47
2019-02-06T23:11:50.442Z,129.00
2019-02-06T23:14:21.136Z,122.67
2019-02-06T23:16:51.505Z,116.67
2019-02-06T23:19:21.921Z,112.17
2019-02-06T23:21:52.613Z,122.00
2019-02-06T23:24:23.100Z,121.17
2019-02-06T23:26:53.630Z,120.60
2019-02-06T23:29:24.345Z,114.73
2019-02-06T23:31:55.384Z,93.43
2019-02-06T23:34:25.771Z,129.53
2019-02-06T23:36:56.255Z,113.23
2019-02-06T23:39:26.655Z,129.53
2019-02-06T23:41:57.696Z,109.50
2019-02-06T23:44:29.218Z,109.27
2019-02-06T23:46:59.994Z,111.00
2019-02-06T23:49:30.385Z,70.23
2019-02-06T23:52:00.887Z,106.67
2019-02-06T23:54:31.417Z,77.67
2019-02-06T23:57:01.825Z,78.97
2019-02-06T23:59:32.245Z,98.33
